createdAt,value
2023-04-03T00:01:03.736Z,98.20
2023-04-03T00:03:32.125Z,97.60
2023-04-03T00:06:00.418Z,97.60
2023-04-03T00:08:28.486Z,97.40
2023-04-03T00:10:56.521Z,97.20
2023-04-03T00:13:26.098Z,97.10
2023-04-03T00:15:54.268Z,96.80
2023-04-03T00:18:22.687Z,97.20
2023-04-03T00:20:50.885Z,97.10
2023-04-03T00:23:19.095Z,96.80
2023-04-03T00:25:47.292Z,96.80
2023-04-03T00:28:15.339Z,97.00
2023-04-03T00:30:44.658Z,96.80
2023-04-03T00:33:14.551Z,96.80
2023-04-03T00:35:43.319Z,96.80
2023-04-03T00:38:11.642Z,96.40
2023-04-03T00:40:43.517Z,96.50
2023-04-03T00:43:15.455Z,96.10
2023-04-03T00:45:46.751Z,96.30
2023-04-03T00:48:20.410Z,96.30
2023-04-03T00:50:48.985Z,96.60
2023-04-03T00:53:21.533Z,96.60
2023-04-03T00:55:51.095Z,96.50
2023-04-03T00:58:21.817Z,96.50
2023-04-03T01:00:58.561Z,96.60
2023-04-03T01:03:27.282Z,96.70
2023-04-03T01:05:56.397Z,96.50
2023-04-03T01:08:24.487Z,96.70
2023-04-03T01:10:52.585Z,96.50
2023-04-03T01:13:26.918Z,96.60
2023-04-03T01:15:56.918Z,96.60
2023-04-03T01:18:26.598Z,96.80
2023-04-03T01:21:32.576Z,96.90
2023-04-03T01:24:23.785Z,97.10
2023-04-03T01:26:52.235Z,96.90
2023-04-03T01:29:20.344Z,97.10
2023-04-03T01:31:55.631Z,97.10
2023-04-03T01:34:24.042Z,97.20
2023-04-03T01:36:53.407Z,97.10
2023-04-03T01:39:23.371Z,97.00
2023-04-03T01:41:51.896Z,97.00
2023-04-03T01:44:36.099Z,97.30
2023-04-03T01:47:08.241Z,97.30
2023-04-03T01:49:36.730Z,97.30
2023-04-03T01:52:05.066Z,97.20
2023-04-03T01:54:33.153Z,97.80
2023-04-03T01:57:01.254Z,97.80
2023-04-03T01:59:29.405Z,97.80
2023-04-03T02:01:57.686Z,97.80
2023-04-03T02:04:27.175Z,97.70
2023-04-03T02:06:55.428Z,97.70
2023-04-03T02:09:23.527Z,97.90
2023-04-03T02:11:51.625Z,97.90
2023-04-03T02:14:19.759Z,98.00
2023-04-03T02:16:47.933Z,98.00
2023-04-03T02:19:16.371Z,97.80
2023-04-03T02:21:46.093Z,98.10
2023-04-03T02:24:14.137Z,98.00
2023-04-03T02:26:42.218Z,98.00
2023-04-03T02:29:10.390Z,98.10
2023-04-03T02:31:38.839Z,98.10
2023-04-03T02:34:07.534Z,98.10
2023-04-03T02:36:37.320Z,98.10
2023-04-03T02:39:10.529Z,98.30
2023-04-03T02:41:38.544Z,98.20
2023-04-03T02:44:13.422Z,98.00
2023-04-03T02:46:41.653Z,98.10
2023-04-03T02:49:09.743Z,98.00
2023-04-03T02:51:37.977Z,98.20
2023-04-03T02:54:06.500Z,98.20
2023-04-03T02:56:37.870Z,98.30
2023-04-03T02:59:06.234Z,98.40
2023-04-03T03:01:36.871Z,98.50
2023-04-03T03:04:05.046Z,98.60
2023-04-03T03:06:33.100Z,98.60
2023-04-03T03:09:01.246Z,98.80
2023-04-03T03:11:29.490Z,98.80
2023-04-03T03:13:59.085Z,98.50
2023-04-03T03:16:27.711Z,98.40
2023-04-03T03:18:57.817Z,97.70
2023-04-03T03:21:27.047Z,97.50
2023-04-03T03:23:55.328Z,97.30
2023-04-03T03:26:23.390Z,97.30
2023-04-03T03:28:51.452Z,96.80
2023-04-03T03:31:20.957Z,96.90
2023-04-03T03:33:48.982Z,96.50
2023-04-03T03:36:17.075Z,96.20
2023-04-03T03:38:45.313Z,96.60
2023-04-03T03:41:13.399Z,96.40
2023-04-03T03:43:43.117Z,96.10
2023-04-03T03:46:12.297Z,96.20
2023-04-03T03:48:41.735Z,96.30
2023-04-03T03:51:09.745Z,96.30
2023-04-03T03:53:39.916Z,96.30
2023-04-03T03:56:11.748Z,96.40
2023-04-03T03:58:41.661Z,96.50
2023-04-03T04:01:09.955Z,96.30
2023-04-03T04:03:45.615Z,96.40
2023-04-03T04:06:18.188Z,96.50
2023-04-03T04:08:46.642Z,96.60
2023-04-03T04:11:16.360Z,96.30
2023-04-03T04:13:46.219Z,96.40
2023-04-03T04:16:15.895Z,96.40
2023-04-03T04:18:45.466Z,96.50
2023-04-03T04:21:13.685Z,96.50
2023-04-03T04:23:43.086Z,96.30
2023-04-03T04:26:11.384Z,96.50
2023-04-03T04:28:40.935Z,96.20
2023-04-03T04:31:09.302Z,96.30
2023-04-03T04:33:38.053Z,96.50
2023-04-03T04:36:09.317Z,96.30
2023-04-03T04:38:38.250Z,96.40
2023-04-03T04:41:06.742Z,96.40
2023-04-03T04:43:35.325Z,96.20
2023-04-03T04:46:05.560Z,96.30
2023-04-03T04:48:38.116Z,96.40
2023-04-03T04:51:08.577Z,96.20
2023-04-03T04:53:38.934Z,96.40
2023-04-03T04:56:08.056Z,96.40
2023-04-03T04:58:38.144Z,96.40
2023-04-03T05:01:08.686Z,96.30
2023-04-03T05:03:40.670Z,96.30
2023-04-03T05:06:10.933Z,96.20
2023-04-03T05:08:39.691Z,96.20
2023-04-03T05:11:08.610Z,96.20
2023-04-03T05:13:36.833Z,96.10
2023-04-03T05:16:05.416Z,96.20
2023-04-03T05:18:33.969Z,96.20
2023-04-03T05:21:07.110Z,96.20
2023-04-03T05:23:37.122Z,96.20
2023-04-03T05:26:06.482Z,96.20
2023-04-03T05:28:34.844Z,96.10
2023-04-03T05:31:02.943Z,96.20
2023-04-03T05:33:36.127Z,96.00
2023-04-03T05:36:07.789Z,96.20
2023-04-03T05:38:42.245Z,96.10
2023-04-03T05:41:10.667Z,96.20
2023-04-03T05:43:39.965Z,96.10
2023-04-03T05:46:13.025Z,96.10
2023-04-03T05:48:42.767Z,96.30
2023-04-03T05:51:18.248Z,96.20
2023-04-03T05:53:50.102Z,96.20
2023-04-03T05:56:18.174Z,96.20
2023-04-03T05:58:46.263Z,96.10
2023-04-03T06:01:14.359Z,96.20
2023-04-03T06:03:42.755Z,96.30
2023-04-03T06:06:14.907Z,96.00
2023-04-03T06:08:44.672Z,96.20
2023-04-03T06:11:14.897Z,96.20
2023-04-03T06:13:43.068Z,96.10
2023-04-03T06:16:15.258Z,96.30
2023-04-03T06:18:43.439Z,96.00
2023-04-03T06:21:11.816Z,96.10
2023-04-03T06:23:40.091Z,96.20
2023-04-03T06:26:08.170Z,96.20
2023-04-03T06:28:37.513Z,96.20
2023-04-03T06:31:05.788Z,96.10
2023-04-03T06:33:33.975Z,96.10
2023-04-03T06:36:05.382Z,96.00
2023-04-03T06:38:33.566Z,95.90
2023-04-03T06:41:02.115Z,95.90
2023-04-03T06:43:33.121Z,95.70
2023-04-03T06:46:03.894Z,95.80
2023-04-03T06:48:31.978Z,95.70
2023-04-03T06:51:00.037Z,95.80
2023-04-03T06:53:28.484Z,95.80
2023-04-03T06:55:56.572Z,95.90
2023-04-03T06:58:24.567Z,95.80
2023-04-03T07:00:52.589Z,95.80
2023-04-03T07:03:22.130Z,96.20
2023-04-03T07:05:50.509Z,95.70
2023-04-03T07:08:18.578Z,95.70
2023-04-03T07:10:46.619Z,95.90
2023-04-03T07:13:14.617Z,95.80
2023-04-03T07:15:42.675Z,95.80
2023-04-03T07:18:10.731Z,95.70
2023-04-03T07:20:41.142Z,96.10
2023-04-03T07:23:09.261Z,96.00
2023-04-03T07:25:37.572Z,95.80
2023-04-03T07:28:06.142Z,95.90
2023-04-03T07:30:34.152Z,96.10
2023-04-03T07:33:02.693Z,95.90
2023-04-03T07:35:30.873Z,95.90
2023-04-03T07:38:00.326Z,95.50
2023-04-03T07:40:28.320Z,95.70
2023-04-03T07:42:57.490Z,95.80
2023-04-03T07:45:25.664Z,95.90
2023-04-03T07:47:53.759Z,95.70
2023-04-03T07:50:21.881Z,95.60
2023-04-03T07:52:51.728Z,95.80
2023-04-03T07:55:21.158Z,95.80
2023-04-03T07:57:49.330Z,95.50
2023-04-03T08:00:20.655Z,95.30
2023-04-03T08:02:51.547Z,95.50
2023-04-03T08:05:20.171Z,95.50
2023-04-03T08:07:48.464Z,95.50
2023-04-03T08:10:17.252Z,95.60
2023-04-03T08:12:48.031Z,95.30
2023-04-03T08:15:16.310Z,95.30
2023-04-03T08:17:44.356Z,95.30
2023-04-03T08:20:12.975Z,95.20
2023-04-03T08:22:41.471Z,95.10
2023-04-03T08:25:10.417Z,94.70
2023-04-03T08:27:39.014Z,94.70
2023-04-03T08:30:10.863Z,94.90
2023-04-03T08:32:39.092Z,95.00
2023-04-03T08:35:07.628Z,95.00
2023-04-03T08:37:37.266Z,94.90
2023-04-03T08:40:06.193Z,94.80
2023-04-03T08:42:48.214Z,94.50
2023-04-03T08:45:22.283Z,94.70
2023-04-03T08:47:58.365Z,94.30
2023-04-03T08:50:31.065Z,94.40
2023-04-03T08:53:00.873Z,93.70
2023-04-03T08:55:33.280Z,93.70
2023-04-03T08:58:04.765Z,93.70
2023-04-03T09:00:43.786Z,93.20
2023-04-03T09:03:15.040Z,93.10
2023-04-03T09:05:49.103Z,92.90
2023-04-03T09:08:26.948Z,92.90
2023-04-03T09:11:08.321Z,93.10
2023-04-03T09:13:43.105Z,92.80
2023-04-03T09:16:23.448Z,92.60
2023-04-03T09:19:00.342Z,92.60
2023-04-03T09:21:37.051Z,92.80
2023-04-03T09:24:08.824Z,92.30
2023-04-03T09:26:44.509Z,92.50
2023-04-03T09:29:18.081Z,92.50
2023-04-03T09:31:49.712Z,92.60
2023-04-03T09:34:25.330Z,92.80
2023-04-03T09:36:54.974Z,92.70
2023-04-03T09:39:25.375Z,92.50
2023-04-03T09:42:02.903Z,92.40
2023-04-03T09:44:33.350Z,92.40
2023-04-03T09:47:21.324Z,92.60
2023-04-03T09:49:49.344Z,92.30
2023-04-03T09:52:23.065Z,92.10
2023-04-03T09:54:51.522Z,92.20
2023-04-03T09:57:20.175Z,92.70
2023-04-03T09:59:58.876Z,92.00
2023-04-03T10:02:36.864Z,92.00
2023-04-03T10:05:09.992Z,91.60
2023-04-03T10:07:41.316Z,91.40
2023-04-03T10:10:23.694Z,91.50
2023-04-03T10:13:06.552Z,91.40
2023-04-03T10:15:38.698Z,90.60
2023-04-03T10:18:25.195Z,90.40
2023-04-03T10:20:54.518Z,90.30
2023-04-03T10:23:27.087Z,90.60
2023-04-03T10:28:47.932Z,90.40
2023-04-03T10:31:21.755Z,90.20
2023-04-03T10:34:05.599Z,89.80
2023-04-03T10:36:40.335Z,90.30
2023-04-03T10:39:22.197Z,89.80
2023-04-03T10:42:16.095Z,89.50
2023-04-03T10:45:01.587Z,89.20
2023-04-03T10:47:39.519Z,88.00
2023-04-03T10:50:24.938Z,87.80
2023-04-03T10:52:59.817Z,87.80
2023-04-03T10:55:37.034Z,86.60
2023-04-03T10:58:07.117Z,86.40
2023-04-03T11:00:40.604Z,87.30
2023-04-03T11:03:14.906Z,86.80
2023-04-03T11:05:46.788Z,85.50
2023-04-03T11:08:31.344Z,84.60
2023-04-03T11:11:02.151Z,84.60
2023-04-03T11:13:36.665Z,83.70
2023-04-03T11:16:07.290Z,84.10
2023-04-03T11:18:41.511Z,83.40
2023-04-03T11:21:16.733Z,82.70
2023-04-03T11:23:50.106Z,83.90
2023-04-03T11:26:21.796Z,82.90
2023-04-03T11:28:55.404Z,82.20
2023-04-03T11:31:41.280Z,80.70
2023-04-03T11:34:22.166Z,82.00
2023-04-03T11:36:54.690Z,83.00
2023-04-03T11:39:27.667Z,82.00
2023-04-03T11:42:06.805Z,82.50
2023-04-03T11:44:40.445Z,81.90
2023-04-03T11:47:10.143Z,82.80
2023-04-03T11:50:02.075Z,82.40
2023-04-03T11:52:58.833Z,80.90
2023-04-03T11:55:53.823Z,80.70
2023-04-03T11:58:31.808Z,80.70
2023-04-03T12:01:06.951Z,79.30
2023-04-03T12:04:08.129Z,80.40
2023-04-03T12:06:53.749Z,79.50
2023-04-03T12:09:31.450Z,80.00
2023-04-03T12:12:02.551Z,80.30
2023-04-03T12:14:31.995Z,79.90
2023-04-03T12:17:00.862Z,79.40
2023-04-03T12:22:17.811Z,80.70
2023-04-03T12:24:49.323Z,80.40
2023-04-03T12:27:35.228Z,80.60
2023-04-03T12:30:21.046Z,79.70
2023-04-03T12:33:20.179Z,78.70
2023-04-03T12:36:03.507Z,78.50
2023-04-03T12:38:58.655Z,79.20
2023-04-03T12:41:34.592Z,77.80
2023-04-03T12:44:25.539Z,73.90
2023-04-03T12:46:55.531Z,77.10
2023-04-03T12:49:34.940Z,78.10
2023-04-03T12:52:06.927Z,78.40
2023-04-03T12:54:37.968Z,77.50
2023-04-03T12:57:13.739Z,77.60
2023-04-03T12:59:42.247Z,76.80
2023-04-03T13:02:24.282Z,78.40
2023-04-03T13:04:53.789Z,77.70
2023-04-03T13:07:29.599Z,77.80
2023-04-03T13:09:59.980Z,75.70
2023-04-03T13:12:28.475Z,76.10
2023-04-03T13:15:01.315Z,74.90
2023-04-03T13:17:30.711Z,74.90
2023-04-03T13:20:12.993Z,75.30
2023-04-03T13:22:46.606Z,75.50
2023-04-03T13:25:17.903Z,75.00
2023-04-03T13:27:46.491Z,74.30
2023-04-03T13:30:27.306Z,75.50
2023-04-03T13:32:58.935Z,74.20
2023-04-03T13:35:30.336Z,73.90
2023-04-03T13:38:00.142Z,73.40
2023-04-03T13:40:32.475Z,74.30
2023-04-03T13:43:18.435Z,74.00
2023-04-03T13:46:00.625Z,73.80
2023-04-03T13:48:38.020Z,73.30
2023-04-03T13:51:08.869Z,72.10
2023-04-03T13:53:45.230Z,72.40
2023-04-03T13:56:21.875Z,72.90
2023-04-03T13:59:06.895Z,72.60
2023-04-03T14:01:42.305Z,73.10
2023-04-03T14:04:19.515Z,72.50
2023-04-03T14:06:48.325Z,72.60
2023-04-03T14:09:17.531Z,72.80
2023-04-03T14:11:47.240Z,73.60
2023-04-03T14:14:18.103Z,72.10
2023-04-03T14:16:48.972Z,72.50
2023-04-03T14:19:23.730Z,73.00
2023-04-03T14:21:53.487Z,72.70
2023-04-03T14:24:22.629Z,70.40
2023-04-03T14:26:51.967Z,70.10
2023-04-03T14:29:21.421Z,71.10
2023-04-03T14:31:53.661Z,70.30
2023-04-03T14:34:29.968Z,70.40
2023-04-03T14:36:58.060Z,70.40
2023-04-03T14:39:26.290Z,69.70
2023-04-03T14:41:54.309Z,70.30
2023-04-03T14:44:24.110Z,70.30
2023-04-03T14:46:56.781Z,70.70
2023-04-03T14:49:30.295Z,70.00
2023-04-03T14:51:58.876Z,69.40
2023-04-03T14:54:28.643Z,70.60
2023-04-03T14:56:58.739Z,70.40
2023-04-03T14:59:27.347Z,70.50
2023-04-03T15:01:55.495Z,71.30
2023-04-03T15:04:23.777Z,71.30
2023-04-03T15:06:53.921Z,70.50
2023-04-03T15:09:23.958Z,71.40
2023-04-03T15:11:53.409Z,71.50
2023-04-03T15:14:35.405Z,71.40
2023-04-03T15:17:07.048Z,71.20
2023-04-03T15:19:39.133Z,70.20
2023-04-03T15:22:08.626Z,69.40
2023-04-03T15:24:36.640Z,69.10
2023-04-03T15:27:04.811Z,69.40
2023-04-03T15:29:32.984Z,68.70
2023-04-03T15:32:01.153Z,69.20
2023-04-03T15:34:30.548Z,68.60
2023-04-03T15:36:58.686Z,68.40
2023-04-03T15:39:28.458Z,68.60
2023-04-03T15:42:00.628Z,67.10
2023-04-03T15:44:28.912Z,68.20
2023-04-03T15:46:57.014Z,68.60
2023-04-03T15:49:25.158Z,67.50
2023-04-03T15:51:53.465Z,68.60
2023-04-03T15:54:21.622Z,69.30
2023-04-03T15:56:51.192Z,69.00
2023-04-03T15:59:19.389Z,68.20
2023-04-03T16:01:47.933Z,68.00
2023-04-03T16:04:17.510Z,67.00
2023-04-03T16:06:46.799Z,66.80
2023-04-03T16:09:15.141Z,66.80
2023-04-03T16:11:44.362Z,66.20
2023-04-03T16:14:13.772Z,66.00
2023-04-03T16:16:41.854Z,65.90
2023-04-03T16:19:11.216Z,66.60
2023-04-03T16:21:39.367Z,66.30
2023-04-03T16:24:07.802Z,65.70
2023-04-03T16:26:35.828Z,64.70
2023-04-03T16:29:03.872Z,64.50
2023-04-03T16:31:34.439Z,64.70
2023-04-03T16:34:03.349Z,65.10
2023-04-03T16:36:31.517Z,65.30
2023-04-03T16:38:59.646Z,64.80
2023-04-03T16:41:27.660Z,64.90
2023-04-03T16:43:55.723Z,66.00
2023-04-03T16:46:23.775Z,65.30
2023-04-03T16:48:53.234Z,65.60
2023-04-03T16:51:21.339Z,66.00
2023-04-03T16:53:49.350Z,65.50
2023-04-03T16:56:17.613Z,66.00
2023-04-03T16:58:45.971Z,66.70
2023-04-03T17:01:15.603Z,65.80
2023-04-03T17:03:43.916Z,66.00
2023-04-03T17:06:17.517Z,66.20
2023-04-03T17:08:46.120Z,66.60
2023-04-03T17:11:28.018Z,65.40
2023-04-03T17:13:56.204Z,64.30
2023-04-03T17:16:25.503Z,63.40
2023-04-03T17:18:54.969Z,63.60
2023-04-03T17:21:24.959Z,63.60
2023-04-03T17:23:58.363Z,64.00
2023-04-03T17:26:27.578Z,63.80
2023-04-03T17:28:57.167Z,64.40
2023-04-03T17:31:25.264Z,64.20
2023-04-03T17:33:53.308Z,63.80
2023-04-03T17:36:21.326Z,65.80
2023-04-03T17:38:51.844Z,65.60
2023-04-03T17:41:19.858Z,65.90
2023-04-03T17:43:47.975Z,66.30
2023-04-03T17:46:17.583Z,66.10
2023-04-03T17:48:45.828Z,66.30
2023-04-03T17:51:16.413Z,67.00
2023-04-03T17:53:45.297Z,67.00
2023-04-03T17:56:16.710Z,67.10
2023-04-03T17:58:45.209Z,67.60
2023-04-03T18:01:15.504Z,67.30
2023-04-03T18:03:44.459Z,67.40
2023-04-03T18:06:15.475Z,68.20
2023-04-03T18:08:47.121Z,68.40
2023-04-03T18:11:16.973Z,68.30
2023-04-03T18:13:46.175Z,68.50
2023-04-03T18:16:15.261Z,68.40
2023-04-03T18:18:43.512Z,68.80
2023-04-03T18:21:14.670Z,69.20
2023-04-03T18:23:44.924Z,69.70
2023-04-03T18:26:19.729Z,69.90
2023-04-03T18:28:54.056Z,69.80
2023-04-03T18:31:22.676Z,69.80
2023-04-03T18:33:53.888Z,69.90
2023-04-03T18:36:22.179Z,69.60
2023-04-03T18:38:50.316Z,69.60
2023-04-03T18:41:22.102Z,69.20
2023-04-03T18:43:50.511Z,70.20
2023-04-03T18:46:19.672Z,70.60
2023-04-03T18:48:47.789Z,69.90
2023-04-03T18:51:16.306Z,69.80
2023-04-03T18:53:44.332Z,70.30
2023-04-03T18:56:12.641Z,70.70
2023-04-03T18:58:42.153Z,70.40
2023-04-03T19:01:10.552Z,69.80
2023-04-03T19:03:38.923Z,70.10
2023-04-03T19:06:07.719Z,70.00
2023-04-03T19:08:36.107Z,70.10
2023-04-03T19:11:04.267Z,69.90
2023-04-03T19:13:32.579Z,69.70
2023-04-03T19:16:02.364Z,70.10
2023-04-03T19:18:30.720Z,70.30
2023-04-03T19:20:59.926Z,70.00
2023-04-03T19:23:28.220Z,70.60
2023-04-03T19:26:00.834Z,70.60
2023-04-03T19:28:29.366Z,70.20
2023-04-03T19:30:58.297Z,70.40
2023-04-03T19:33:28.713Z,70.40
2023-04-03T19:35:56.994Z,71.00
2023-04-03T19:38:25.014Z,70.90
2023-04-03T19:40:53.569Z,71.10
2023-04-03T19:43:21.647Z,70.30
2023-04-03T19:45:49.641Z,70.60
2023-04-03T19:48:17.793Z,70.60
2023-04-03T19:50:47.293Z,70.00
2023-04-03T19:53:19.317Z,70.50
2023-04-03T19:55:47.430Z,69.70
2023-04-03T19:58:15.568Z,69.70
2023-04-03T20:00:43.683Z,69.40
2023-04-03T20:03:11.789Z,69.50
2023-04-03T20:05:39.873Z,70.00
2023-04-03T20:08:09.275Z,69.50
2023-04-03T20:10:40.238Z,69.50
2023-04-03T20:13:10.547Z,70.20
2023-04-03T20:15:41.192Z,70.10
2023-04-03T20:18:09.879Z,70.20
2023-04-03T20:20:41.802Z,70.10
2023-04-03T20:23:13.168Z,70.00
2023-04-03T20:28:15.624Z,70.00
2023-04-03T20:30:47.509Z,69.40
2023-04-03T20:33:15.577Z,69.70
2023-04-03T20:35:43.686Z,69.80
2023-04-03T20:38:13.164Z,69.60
2023-04-03T20:40:41.752Z,69.30
2023-04-03T20:43:10.046Z,69.60
2023-04-03T20:45:38.114Z,69.70
2023-04-03T20:48:08.164Z,69.80
2023-04-03T20:50:37.681Z,69.30
2023-04-03T20:53:06.207Z,69.50
2023-04-03T20:55:36.232Z,69.70
2023-04-03T20:58:04.397Z,69.60
2023-04-03T21:00:33.448Z,69.10
2023-04-03T21:03:02.894Z,69.70
2023-04-03T21:05:33.278Z,70.30
2023-04-03T21:08:39.931Z,69.50
2023-04-03T21:11:45.262Z,69.60
2023-04-03T21:14:50.928Z,69.80
2023-04-03T21:17:18.710Z,69.20
2023-04-03T21:19:48.768Z,68.90
2023-04-03T21:22:16.963Z,69.90
2023-04-03T21:24:45.592Z,69.70
2023-04-03T21:27:13.624Z,70.80
2023-04-03T21:29:41.665Z,69.70
2023-04-03T21:32:09.693Z,69.20
2023-04-03T21:34:37.795Z,69.80
2023-04-03T21:37:09.408Z,69.80
2023-04-03T21:39:38.265Z,69.10
2023-04-03T21:42:07.388Z,69.20
2023-04-03T21:44:35.383Z,69.20
2023-04-03T21:47:03.419Z,69.70
2023-04-03T21:49:31.737Z,69.60
2023-04-03T21:51:59.754Z,69.90
2023-04-03T21:54:29.161Z,69.50
2023-04-03T21:56:57.209Z,69.70
2023-04-03T21:59:25.544Z,70.10
2023-04-03T22:01:53.747Z,69.50
2023-04-03T22:04:22.401Z,69.10
2023-04-03T22:06:50.839Z,68.60
2023-04-03T22:09:18.857Z,68.50
2023-04-03T22:11:48.968Z,68.20
2023-04-03T22:14:17.249Z,69.30
2023-04-03T22:16:46.420Z,69.20
2023-04-03T22:19:14.630Z,68.90
2023-04-03T22:21:43.404Z,69.00
2023-04-03T22:24:11.508Z,69.30
2023-04-03T22:26:40.676Z,69.10
2023-04-03T22:29:10.082Z,69.50
2023-04-03T22:31:38.421Z,69.50
2023-04-03T22:34:06.417Z,70.00
2023-04-03T22:36:34.632Z,69.30
2023-04-03T22:39:05.907Z,69.00
2023-04-03T22:41:35.055Z,69.30
2023-04-03T22:44:03.063Z,68.90
2023-04-03T22:46:32.782Z,68.80
2023-04-03T22:49:00.896Z,69.20
2023-04-03T22:51:28.954Z,69.50
2023-04-03T22:53:57.009Z,68.80
2023-04-03T22:56:26.261Z,69.40
2023-04-03T22:58:54.586Z,69.80
2023-04-03T23:01:24.025Z,69.00
2023-04-03T23:03:53.541Z,69.70
2023-04-03T23:06:21.966Z,69.20
2023-04-03T23:08:50.865Z,69.40
2023-04-03T23:11:18.851Z,69.30
2023-04-03T23:13:46.854Z,70.00
2023-04-03T23:16:14.904Z,69.70
2023-04-03T23:18:43.606Z,69.30
2023-04-03T23:21:13.140Z,69.60
2023-04-03T23:23:41.202Z,69.80
2023-04-03T23:26:10.083Z,68.90
2023-04-03T23:28:38.154Z,69.50
2023-04-03T23:31:07.064Z,69.80
2023-04-03T23:33:35.393Z,70.40
2023-04-03T23:36:08.408Z,70.40
2023-04-03T23:38:38.123Z,70.50
2023-04-03T23:41:06.521Z,69.80
2023-04-03T23:43:34.614Z,70.20
2023-04-03T23:46:02.897Z,70.30
2023-04-03T23:48:30.958Z,70.60
2023-04-03T23:50:59.003Z,70.20
2023-04-03T23:53:27.155Z,70.10
2023-04-03T23:55:56.557Z,71.00
2023-04-03T23:58:24.730Z,70.80
